MiSS Sylvia — WDE5412 — position and weather

sailwx.info

Track history (hours):
 
Tides and Currents Weather Stations Pressure Air Temp Water Temp Dewpoint Dewpoint Depression Visibility Wind Speed Wind Dir Waves Ship Positions

MiSS Sylvia

Owner: DOUBLE J MARINE, LLC, LAPLACE, LA. More information available from US FCC via Universal Licensing System and Coast Guard Vessel Documentation Center.

Last reported at 2016-Jul-27 09:33 UTC. Time now 2016-Jul-27 09:40 UTC.
Position N 29°56' W 090°08'.

Length 20 m; draft 2.7 m.

Type: Towing. MMSI: 367366340.

Date/timePositionNaut miles runAvg speedWind from/ knotsBaromVisibWave heightAir tempDewpointWater temp
2016-Jul-27 09:33N 29°56' W 090°08'5 0.1
2016-Jul-25 15:15N 29°58' W 090°14'3 3.6
2016-Jul-25 14:29N 29°56' W 090°12'3 3.1
2016-Jul-25 13:33N 29°57' W 090°09'0 0.1
2016-Jul-25 12:33N 29°57' W 090°09'0 0.0
2016-Jul-25 11:27N 29°57' W 090°09'1 1.7
2016-Jul-25 10:33N 29°55' W 090°08'4 4.1
2016-Jul-25 09:33N 29°56' W 090°04'4 3.5
2016-Jul-25 08:33N 29°56' W 089°60'5 4.5
2016-Jul-25 07:33N 29°54' W 089°55'3 2.7
2016-Jul-25 06:32N 29°53' W 089°57'4 3.7
2016-Jul-25 05:32N 29°50' W 089°60'3 3.0
2016-Jul-25 04:31N 29°47' W 090°01'1 0.3
2016-Jul-25 00:24N 29°46' W 090°01'5 5.8
2016-Jul-24 23:33N 29°50' W 089°59'3 3.5
2016-Jul-24 22:33N 29°52' W 089°56'3 3.1
2016-Jul-24 21:34N 29°55' W 089°56'6 6.0
2016-Jul-24 20:33N 29°57' W 090°03'5 4.8
2016-Jul-24 19:33N 29°54' W 090°07'4 3.5
2016-Jul-24 18:33N 29°56' W 090°11'3 0.1
2016-Jul-23 21:33N 29°57' W 090°14'3 2.8
2016-Jul-23 20:27N 29°56' W 090°10'2 2.1
2016-Jul-23 19:33N 29°56' W 090°08'3 3.3
2016-Jul-23 18:33N 29°55' W 090°05'4 3.5
2016-Jul-23 17:33N 29°57' W 090°01'4 4.2
2016-Jul-23 16:33N 29°55' W 089°57'4 3.2
2016-Jul-23 15:24N 29°52' W 089°55'3 3.4
2016-Jul-23 14:33N 29°51' W 089°59'4 3.3
2016-Jul-23 13:24N 29°48' W 090°01'4 4.8
2016-Jul-23 12:33N 29°44' W 089°60'3 0.8
2016-Jul-23 09:19N 29°46' W 090°02'6 8.1
2016-Jul-23 08:33N 29°52' W 089°59'5 4.6
2016-Jul-23 07:33N 29°55' W 089°55'4 4.0
2016-Jul-23 06:33N 29°56' W 089°60'8 3.8
2016-Jul-23 04:33N 29°56' W 090°08'4 0.3
2016-Jul-22 15:26N 29°55' W 090°13'3 3.0
2016-Jul-22 14:33N 29°57' W 090°10'1 1.5
2016-Jul-22 13:33N 29°57' W 090°08'3 3.1
2016-Jul-22 12:33N 29°55' W 090°06'4 3.7
2016-Jul-22 11:33N 29°57' W 090°02'1 1.1
2016-Jul-22 10:33N 29°57' W 090°04'4 4.4
2016-Jul-22 09:33N 29°56' W 090°09'0 0.5
2016-Jul-22 08:33N 29°56' W 090°08'0 0.0
2016-Jul-22 07:33N 29°56' W 090°08'1 0.3
2016-Jul-22 05:33N 29°56' W 090°08'3 2.9
2016-Jul-22 04:30N 29°55' W 090°12'  
2016-Jul-17 21:04N 29°57' W 090°14'3 4.1
2016-Jul-17 20:25N 29°56' W 090°12'3 3.2
2016-Jul-17 19:33N 29°56' W 090°08'4 3.9
2016-Jul-17 18:33N 29°56' W 090°04'3 3.3
2016-Jul-17 17:33N 29°56' W 090°00'4 4.4
2016-Jul-17 16:33N 29°55' W 089°55'3 2.7
2016-Jul-17 15:32N 29°53' W 089°57'4 4.0
2016-Jul-17 14:31N 29°50' W 089°60'2 2.1
2016-Jul-17 13:33N 29°48' W 090°01'0 0.4
2016-Jul-17 12:33N 29°48' W 090°00'0 0.0
2016-Jul-17 11:33N 29°48' W 090°00'3 2.5
2016-Jul-17 10:30N 29°50' W 089°59'  
Track history (hours):
 
Tides and Currents Weather Stations Pressure Air Temp Water Temp Dewpoint Dewpoint Depression Visibility Wind Speed Wind Dir Waves Ship Positions

MiSS Sylvia

Owner: DOUBLE J MARINE, LLC, LAPLACE, LA. More information available from US FCC via Universal Licensing System and Coast Guard Vessel Documentation Center.

Last reported at 2016-Jul-27 09:33 UTC. Time now 2016-Jul-27 09:40 UTC.
Position N 29°56' W 090°08'.

Length 20 m; draft 2.7 m.

Type: Towing. MMSI: 367366340.

Date/timePositionNaut miles runAvg speedWind from/ knotsBaromVisibWave heightAir tempDewpointWater temp
2016-Jul-27 09:33N 29°56' W 090°08'5 0.1
2016-Jul-25 15:15N 29°58' W 090°14'3 3.6
2016-Jul-25 14:29N 29°56' W 090°12'3 3.1
2016-Jul-25 13:33N 29°57' W 090°09'0 0.1
2016-Jul-25 12:33N 29°57' W 090°09'0 0.0
2016-Jul-25 11:27N 29°57' W 090°09'1 1.7
2016-Jul-25 10:33N 29°55' W 090°08'4 4.1
2016-Jul-25 09:33N 29°56' W 090°04'4 3.5
2016-Jul-25 08:33N 29°56' W 089°60'5 4.5
2016-Jul-25 07:33N 29°54' W 089°55'3 2.7
2016-Jul-25 06:32N 29°53' W 089°57'4 3.7
2016-Jul-25 05:32N 29°50' W 089°60'3 3.0
2016-Jul-25 04:31N 29°47' W 090°01'1 0.3
2016-Jul-25 00:24N 29°46' W 090°01'5 5.8
2016-Jul-24 23:33N 29°50' W 089°59'3 3.5
2016-Jul-24 22:33N 29°52' W 089°56'3 3.1
2016-Jul-24 21:34N 29°55' W 089°56'6 6.0
2016-Jul-24 20:33N 29°57' W 090°03'5 4.8
2016-Jul-24 19:33N 29°54' W 090°07'4 3.5
2016-Jul-24 18:33N 29°56' W 090°11'3 0.1
2016-Jul-23 21:33N 29°57' W 090°14'3 2.8
2016-Jul-23 20:27N 29°56' W 090°10'2 2.1
2016-Jul-23 19:33N 29°56' W 090°08'3 3.3
2016-Jul-23 18:33N 29°55' W 090°05'4 3.5
2016-Jul-23 17:33N 29°57' W 090°01'4 4.2
2016-Jul-23 16:33N 29°55' W 089°57'4 3.2
2016-Jul-23 15:24N 29°52' W 089°55'3 3.4
2016-Jul-23 14:33N 29°51' W 089°59'4 3.3
2016-Jul-23 13:24N 29°48' W 090°01'4 4.8
2016-Jul-23 12:33N 29°44' W 089°60'3 0.8
2016-Jul-23 09:19N 29°46' W 090°02'6 8.1
2016-Jul-23 08:33N 29°52' W 089°59'5 4.6
2016-Jul-23 07:33N 29°55' W 089°55'4 4.0
2016-Jul-23 06:33N 29°56' W 089°60'8 3.8
2016-Jul-23 04:33N 29°56' W 090°08'4 0.3
2016-Jul-22 15:26N 29°55' W 090°13'3 3.0
2016-Jul-22 14:33N 29°57' W 090°10'1 1.5
2016-Jul-22 13:33N 29°57' W 090°08'3 3.1
2016-Jul-22 12:33N 29°55' W 090°06'4 3.7
2016-Jul-22 11:33N 29°57' W 090°02'1 1.1
2016-Jul-22 10:33N 29°57' W 090°04'4 4.4
2016-Jul-22 09:33N 29°56' W 090°09'0 0.5
2016-Jul-22 08:33N 29°56' W 090°08'0 0.0
2016-Jul-22 07:33N 29°56' W 090°08'1 0.3
2016-Jul-22 05:33N 29°56' W 090°08'3 2.9
2016-Jul-22 04:30N 29°55' W 090°12'  
2016-Jul-17 21:04N 29°57' W 090°14'3 4.1
2016-Jul-17 20:25N 29°56' W 090°12'3 3.2
2016-Jul-17 19:33N 29°56' W 090°08'4 3.9
2016-Jul-17 18:33N 29°56' W 090°04'3 3.3
2016-Jul-17 17:33N 29°56' W 090°00'4 4.4
2016-Jul-17 16:33N 29°55' W 089°55'3 2.7
2016-Jul-17 15:32N 29°53' W 089°57'4 4.0
2016-Jul-17 14:31N 29°50' W 089°60'2 2.1
2016-Jul-17 13:33N 29°48' W 090°01'0 0.4
2016-Jul-17 12:33N 29°48' W 090°00'0 0.0
2016-Jul-17 11:33N 29°48' W 090°00'3 2.5
2016-Jul-17 10:30N 29°50' W 089°59'  

Dump ship's entire track history